sensor_id;sensor_type;location;lat;lon;timestamp;pressure;altitude;pressure_sealevel;temperature;humidity
26443;BME280;5563;52.296;6.806;2023-07-08T00:01:22;101754.75;;;17.74;62.37
26443;BME280;5563;52.296;6.806;2023-07-08T00:03:56;101753.34;;;17.70;62.53
26443;BME280;5563;52.296;6.806;2023-07-08T00:06:26;101762.16;;;17.62;62.72
26443;BME280;5563;52.296;6.806;2023-07-08T00:09:10;101754.66;;;17.56;63.31
26443;BME280;5563;52.296;6.806;2023-07-08T00:11:38;101757.50;;;17.55;62.72
26443;BME280;5563;52.296;6.806;2023-07-08T00:14:11;101746.00;;;17.53;62.62
26443;BME280;5563;52.296;6.806;2023-07-08T00:16:38;101745.34;;;17.51;62.74
26443;BME280;5563;52.296;6.806;2023-07-08T00:19:12;101751.00;;;17.48;63.35
26443;BME280;5563;52.296;6.806;2023-07-08T00:21:39;101739.91;;;17.41;63.38
26443;BME280;5563;52.296;6.806;2023-07-08T00:24:12;101737.22;;;17.41;63.88
26443;BME280;5563;52.296;6.806;2023-07-08T00:26:46;101736.66;;;17.38;63.75
26443;BME280;5563;52.296;6.806;2023-07-08T00:29:16;101736.22;;;17.42;63.87
26443;BME280;5563;52.296;6.806;2023-07-08T00:31:50;101746.19;;;17.42;64.02
26443;BME280;5563;52.296;6.806;2023-07-08T00:34:17;101741.06;;;17.39;64.72
26443;BME280;5563;52.296;6.806;2023-07-08T00:36:51;101742.78;;;17.30;64.55
26443;BME280;5563;52.296;6.806;2023-07-08T00:39:17;101744.06;;;17.26;65.00
26443;BME280;5563;52.296;6.806;2023-07-08T00:41:52;101733.31;;;17.16;64.82
26443;BME280;5563;52.296;6.806;2023-07-08T00:44:20;101733.56;;;17.13;65.16
26443;BME280;5563;52.296;6.806;2023-07-08T00:47:03;101722.53;;;17.07;64.84
26443;BME280;5563;52.296;6.806;2023-07-08T00:49:47;101727.06;;;17.06;64.92
26443;BME280;5563;52.296;6.806;2023-07-08T00:52:29;101730.78;;;17.05;65.41
26443;BME280;5563;52.296;6.806;2023-07-08T00:55:05;101725.53;;;17.04;65.62
26443;BME280;5563;52.296;6.806;2023-07-08T00:57:41;101718.44;;;17.03;65.80
26443;BME280;5563;52.296;6.806;2023-07-08T01:00:12;101718.72;;;17.00;66.21
26443;BME280;5563;52.296;6.806;2023-07-08T01:02:54;101715.47;;;16.96;66.59
26443;BME280;5563;52.296;6.806;2023-07-08T01:05:25;101714.91;;;16.93;65.75
26443;BME280;5563;52.296;6.806;2023-07-08T01:08:02;101709.66;;;16.91;66.09
26443;BME280;5563;52.296;6.806;2023-07-08T01:10:58;101709.38;;;16.94;65.96
26443;BME280;5563;52.296;6.806;2023-07-08T01:13:35;101703.84;;;16.96;65.77
26443;BME280;5563;52.296;6.806;2023-07-08T01:16:04;101689.53;;;16.86;65.80
26443;BME280;5563;52.296;6.806;2023-07-08T01:18:38;101702.84;;;16.87;66.38
26443;BME280;5563;52.296;6.806;2023-07-08T01:24:10;101699.44;;;16.85;66.74
26443;BME280;5563;52.296;6.806;2023-07-08T01:26:44;101688.25;;;16.80;65.51
26443;BME280;5563;52.296;6.806;2023-07-08T01:29:12;101689.13;;;16.81;66.31
26443;BME280;5563;52.296;6.806;2023-07-08T01:31:46;101694.66;;;16.79;66.64
26443;BME280;5563;52.296;6.806;2023-07-08T01:34:22;101692.22;;;16.76;66.85
26443;BME280;5563;52.296;6.806;2023-07-08T01:37:04;101688.13;;;16.72;66.73
26443;BME280;5563;52.296;6.806;2023-07-08T01:39:32;101693.78;;;16.69;66.96
26443;BME280;5563;52.296;6.806;2023-07-08T01:42:06;101699.31;;;16.68;67.56
26443;BME280;5563;52.296;6.806;2023-07-08T01:44:35;101689.28;;;16.60;67.81
26443;BME280;5563;52.296;6.806;2023-07-08T01:47:16;101673.97;;;16.51;68.36
26443;BME280;5563;52.296;6.806;2023-07-08T01:49:47;101686.59;;;16.51;67.53
26443;BME280;5563;52.296;6.806;2023-07-08T01:52:35;101677.34;;;16.44;67.03
26443;BME280;5563;52.296;6.806;2023-07-08T01:55:03;101681.72;;;16.45;68.38
26443;BME280;5563;52.296;6.806;2023-07-08T01:57:37;101679.31;;;16.42;68.70
26443;BME280;5563;52.296;6.806;2023-07-08T02:00:05;101675.50;;;16.35;68.61
26443;BME280;5563;52.296;6.806;2023-07-08T02:02:39;101659.31;;;16.25;68.62
26443;BME280;5563;52.296;6.806;2023-07-08T02:05:06;101652.25;;;16.24;68.78
26443;BME280;5563;52.296;6.806;2023-07-08T02:07:39;101654.94;;;16.24;68.64
26443;BME280;5563;52.296;6.806;2023-07-08T02:10:12;101650.97;;;16.18;68.78
26443;BME280;5563;52.296;6.806;2023-07-08T02:12:45;101651.13;;;16.17;68.84
26443;BME280;5563;52.296;6.806;2023-07-08T02:15:11;101649.53;;;16.14;69.88
26443;BME280;5563;52.296;6.806;2023-07-08T02:17:45;101651.94;;;16.08;69.52
26443;BME280;5563;52.296;6.806;2023-07-08T02:20:18;101640.06;;;16.01;69.37
26443;BME280;5563;52.296;6.806;2023-07-08T02:22:45;101641.88;;;16.00;69.73
26443;BME280;5563;52.296;6.806;2023-07-08T02:25:18;101644.84;;;15.97;69.63
26443;BME280;5563;52.296;6.806;2023-07-08T02:27:52;101646.13;;;15.93;69.69
26443;BME280;5563;52.296;6.806;2023-07-08T02:30:19;101645.25;;;15.93;70.31
26443;BME280;5563;52.296;6.806;2023-07-08T02:32:52;101642.13;;;15.88;70.86
26443;BME280;5563;52.296;6.806;2023-07-08T02:35:32;101644.13;;;15.86;70.66
26443;BME280;5563;52.296;6.806;2023-07-08T02:37:58;101633.94;;;15.80;70.67
26443;BME280;5563;52.296;6.806;2023-07-08T02:40:32;101631.25;;;15.80;70.77
26443;BME280;5563;52.296;6.806;2023-07-08T02:42:58;101629.09;;;15.74;71.52
26443;BME280;5563;52.296;6.806;2023-07-08T02:45:32;101618.91;;;15.68;70.71
26443;BME280;5563;52.296;6.806;2023-07-08T02:47:58;101621.44;;;15.69;71.16
26443;BME280;5563;52.296;6.806;2023-07-08T02:50:32;101627.78;;;15.68;71.60
26443;BME280;5563;52.296;6.806;2023-07-08T02:53:12;101628.09;;;15.65;70.89
26443;BME280;5563;52.296;6.806;2023-07-08T02:55:46;101629.34;;;15.61;71.34
26443;BME280;5563;52.296;6.806;2023-07-08T02:58:19;101622.41;;;15.59;71.64
26443;BME280;5563;52.296;6.806;2023-07-08T03:00:56;101610.66;;;15.50;72.19
26443;BME280;5563;52.296;6.806;2023-07-08T03:03:29;101610.66;;;15.50;72.29
26443;BME280;5563;52.296;6.806;2023-07-08T03:06:03;101621.25;;;15.52;71.91
26443;BME280;5563;52.296;6.806;2023-07-08T03:08:32;101619.41;;;15.52;71.98
26443;BME280;5563;52.296;6.806;2023-07-08T03:11:07;101614.88;;;15.53;72.24
26443;BME280;5563;52.296;6.806;2023-07-08T03:13:41;101616.72;;;15.52;72.13
26443;BME280;5563;52.296;6.806;2023-07-08T03:16:14;101615.03;;;15.51;71.75
26443;BME280;5563;52.296;6.806;2023-07-08T03:18:40;101607.25;;;15.48;72.33
26443;BME280;5563;52.296;6.806;2023-07-08T03:21:19;101576.03;;;15.27;72.30
26443;BME280;5563;52.296;6.806;2023-07-08T03:23:48;101618.81;;;15.49;72.31
26443;BME280;5563;52.296;6.806;2023-07-08T03:26:23;101609.78;;;15.50;72.75
26443;BME280;5563;52.296;6.806;2023-07-08T03:28:51;101599.56;;;15.44;72.67
26443;BME280;5563;52.296;6.806;2023-07-08T03:31:25;101614.16;;;15.41;72.58
26443;BME280;5563;52.296;6.806;2023-07-08T03:33:58;101626.13;;;15.37;73.24
26443;BME280;5563;52.296;6.806;2023-07-08T03:36:32;101618.59;;;15.31;72.98
26443;BME280;5563;52.296;6.806;2023-07-08T03:39:05;101616.19;;;15.28;73.54
26443;BME280;5563;52.296;6.806;2023-07-08T03:41:32;101608.69;;;15.32;74.03
26443;BME280;5563;52.296;6.806;2023-07-08T03:44:05;101600.34;;;15.25;73.49
26443;BME280;5563;52.296;6.806;2023-07-08T03:46:38;101605.56;;;15.27;73.40
26443;BME280;5563;52.296;6.806;2023-07-08T03:49:20;101609.94;;;15.28;73.65
26443;BME280;5563;52.296;6.806;2023-07-08T03:51:55;101608.53;;;15.24;74.41
26443;BME280;5563;52.296;6.806;2023-07-08T03:54:35;101609.38;;;15.24;74.58
26443;BME280;5563;52.296;6.806;2023-07-08T03:57:01;101608.94;;;15.19;74.62
26443;BME280;5563;52.296;6.806;2023-07-08T03:59:35;101616.13;;;15.18;75.50
26443;BME280;5563;52.296;6.806;2023-07-08T04:02:11;101616.53;;;15.14;74.89
26443;BME280;5563;52.296;6.806;2023-07-08T04:04:44;101614.97;;;15.11;75.29
26443;BME280;5563;52.296;6.806;2023-07-08T04:07:17;101618.78;;;15.09;75.10
26443;BME280;5563;52.296;6.806;2023-07-08T04:09:43;101617.94;;;15.08;74.87
26443;BME280;5563;52.296;6.806;2023-07-08T04:12:23;101611.97;;;15.05;75.75
26443;BME280;5563;52.296;6.806;2023-07-08T04:14:50;101614.53;;;15.06;75.58
26443;BME280;5563;52.296;6.806;2023-07-08T04:17:23;101619.38;;;15.12;75.25
26443;BME280;5563;52.296;6.806;2023-07-08T04:19:53;101621.19;;;15.12;76.00
26443;BME280;5563;52.296;6.806;2023-07-08T04:22:26;101616.13;;;15.18;74.92
26443;BME280;5563;52.296;6.806;2023-07-08T04:24:59;101619.97;;;15.26;75.40
26443;BME280;5563;52.296;6.806;2023-07-08T04:27:32;101624.09;;;15.30;75.54
26443;BME280;5563;52.296;6.806;2023-07-08T04:30:06;101620.69;;;15.28;75.53
26443;BME280;5563;52.296;6.806;2023-07-08T04:32:40;101620.84;;;15.26;75.68
26443;BME280;5563;52.296;6.806;2023-07-08T04:35:14;101626.78;;;15.30;75.76
26443;BME280;5563;52.296;6.806;2023-07-08T04:37:41;101628.66;;;15.39;74.98
26443;BME280;5563;52.296;6.806;2023-07-08T04:40:20;101630.00;;;15.44;75.44
26443;BME280;5563;52.296;6.806;2023-07-08T04:42:54;101633.13;;;15.49;75.69
26443;BME280;5563;52.296;6.806;2023-07-08T04:45:21;101640.50;;;15.57;76.09
26443;BME280;5563;52.296;6.806;2023-07-08T04:47:55;101641.53;;;15.65;75.77
26443;BME280;5563;52.296;6.806;2023-07-08T04:50:28;101639.69;;;15.75;74.83
26443;BME280;5563;52.296;6.806;2023-07-08T04:53:02;101640.03;;;15.91;75.22
26443;BME280;5563;52.296;6.806;2023-07-08T04:55:45;101641.91;;;16.10;74.30
26443;BME280;5563;52.296;6.806;2023-07-08T04:58:13;101632.41;;;16.25;73.07
26443;BME280;5563;52.296;6.806;2023-07-08T05:00:47;101633.13;;;16.46;73.17
26443;BME280;5563;52.296;6.806;2023-07-08T05:03:14;101631.19;;;16.67;72.06
26443;BME280;5563;52.296;6.806;2023-07-08T05:05:55;101628.59;;;16.85;71.85
26443;BME280;5563;52.296;6.806;2023-07-08T05:08:22;101623.72;;;16.98;72.00
26443;BME280;5563;52.296;6.806;2023-07-08T05:10:55;101622.41;;;17.11;71.27
26443;BME280;5563;52.296;6.806;2023-07-08T05:13:22;101616.69;;;17.24;70.49
26443;BME280;5563;52.296;6.806;2023-07-08T05:15:56;101621.28;;;17.41;69.65
26443;BME280;5563;52.296;6.806;2023-07-08T05:18:23;101615.59;;;17.54;69.41
26443;BME280;5563;52.296;6.806;2023-07-08T05:20:56;101627.84;;;17.75;68.85
26443;BME280;5563;52.296;6.806;2023-07-08T05:23:23;101618.69;;;17.86;69.59
26443;BME280;5563;52.296;6.806;2023-07-08T05:26:01;101623.22;;;18.03;68.14
26443;BME280;5563;52.296;6.806;2023-07-08T05:28:35;101630.47;;;18.20;66.04
26443;BME280;5563;52.296;6.806;2023-07-08T05:31:09;101630.09;;;18.32;66.66
26443;BME280;5563;52.296;6.806;2023-07-08T05:33:35;101629.19;;;18.42;66.24
26443;BME280;5563;52.296;6.806;2023-07-08T05:36:09;101621.03;;;18.51;65.73
26443;BME280;5563;52.296;6.806;2023-07-08T05:38:42;101626.66;;;18.58;65.95
26443;BME280;5563;52.296;6.806;2023-07-08T05:41:09;101626.03;;;18.64;65.22
26443;BME280;5563;52.296;6.806;2023-07-08T05:43:42;101623.69;;;18.69;64.39
26443;BME280;5563;52.296;6.806;2023-07-08T05:46:12;101604.78;;;18.69;64.34
26443;BME280;5563;52.296;6.806;2023-07-08T05:48:45;101614.50;;;18.79;65.59
26443;BME280;5563;52.296;6.806;2023-07-08T05:51:12;101619.56;;;18.82;64.13
26443;BME280;5563;52.296;6.806;2023-07-08T05:53:51;101616.56;;;18.85;64.52
26443;BME280;5563;52.296;6.806;2023-07-08T05:56:18;101619.97;;;18.87;65.11
26443;BME280;5563;52.296;6.806;2023-07-08T05:58:52;101617.94;;;18.89;65.05
26443;BME280;5563;52.296;6.806;2023-07-08T06:01:19;101612.41;;;18.91;65.23
26443;BME280;5563;52.296;6.806;2023-07-08T06:03:52;101606.50;;;18.95;65.28
26443;BME280;5563;52.296;6.806;2023-07-08T06:06:19;101605.34;;;18.98;63.73
26443;BME280;5563;52.296;6.806;2023-07-08T06:08:46;101606.69;;;19.02;63.56
26443;BME280;5563;52.296;6.806;2023-07-08T06:11:19;101605.53;;;19.04;64.65
26443;BME280;5563;52.296;6.806;2023-07-08T06:13:46;101601.81;;;19.05;64.68
26443;BME280;5563;52.296;6.806;2023-07-08T06:16:20;101612.00;;;19.11;65.52
26443;BME280;5563;52.296;6.806;2023-07-08T06:19:05;101606.09;;;19.16;64.29
26443;BME280;5563;52.296;6.806;2023-07-08T06:21:39;101609.84;;;19.23;63.86
26443;BME280;5563;52.296;6.806;2023-07-08T06:24:05;101615.88;;;19.34;63.00
26443;BME280;5563;52.296;6.806;2023-07-08T06:26:39;101601.06;;;19.47;62.29
26443;BME280;5563;52.296;6.806;2023-07-08T06:29:06;101612.09;;;19.61;61.42
26443;BME280;5563;52.296;6.806;2023-07-08T06:31:39;101613.50;;;19.73;60.76
26443;BME280;5563;52.296;6.806;2023-07-08T06:34:06;101618.78;;;19.83;61.32
26443;BME280;5563;52.296;6.806;2023-07-08T06:36:32;101617.59;;;19.85;61.26
26443;BME280;5563;52.296;6.806;2023-07-08T06:39:06;101612.22;;;19.93;62.67
26443;BME280;5563;52.296;6.806;2023-07-08T06:41:35;101606.97;;;20.00;61.39
26443;BME280;5563;52.296;6.806;2023-07-08T06:44:08;101601.41;;;20.09;60.67
26443;BME280;5563;52.296;6.806;2023-07-08T06:46:35;101594.81;;;20.12;61.46
26443;BME280;5563;52.296;6.806;2023-07-08T06:49:08;101597.91;;;20.25;59.38
26443;BME280;5563;52.296;6.806;2023-07-08T06:51:36;101593.50;;;20.32;60.46
26443;BME280;5563;52.296;6.806;2023-07-08T06:54:16;101592.00;;;20.37;61.47
26443;BME280;5563;52.296;6.806;2023-07-08T06:56:43;101597.06;;;20.49;59.11
26443;BME280;5563;52.296;6.806;2023-07-08T06:59:16;101579.44;;;20.53;59.67
26443;BME280;5563;52.296;6.806;2023-07-08T07:01:49;101598.56;;;20.67;59.03
26443;BME280;5563;52.296;6.806;2023-07-08T07:04:22;101598.91;;;20.80;58.08
26443;BME280;5563;52.296;6.806;2023-07-08T07:06:55;101610.41;;;20.90;56.96
26443;BME280;5563;52.296;6.806;2023-07-08T07:09:21;101620.94;;;21.01;56.86
26443;BME280;5563;52.296;6.806;2023-07-08T07:11:58;101613.78;;;21.08;57.35
26443;BME280;5563;52.296;6.806;2023-07-08T07:14:31;101611.22;;;21.15;56.90
26443;BME280;5563;52.296;6.806;2023-07-08T07:17:07;101602.91;;;21.24;56.97
26443;BME280;5563;52.296;6.806;2023-07-08T07:19:35;101610.69;;;21.35;57.07
26443;BME280;5563;52.296;6.806;2023-07-08T07:22:08;101606.38;;;21.41;57.13
26443;BME280;5563;52.296;6.806;2023-07-08T07:24:35;101606.19;;;21.51;56.77
26443;BME280;5563;52.296;6.806;2023-07-08T07:27:09;101606.81;;;21.61;55.96
26443;BME280;5563;52.296;6.806;2023-07-08T07:29:42;101603.53;;;21.73;57.29
26443;BME280;5563;52.296;6.806;2023-07-08T07:32:18;101582.47;;;21.75;55.61
26443;BME280;5563;52.296;6.806;2023-07-08T07:34:49;101607.53;;;21.93;55.91
26443;BME280;5563;52.296;6.806;2023-07-08T07:37:22;101609.19;;;22.02;55.60
26443;BME280;5563;52.296;6.806;2023-07-08T07:39:49;101602.47;;;22.13;55.04
26443;BME280;5563;52.296;6.806;2023-07-08T07:42:22;101599.53;;;22.22;55.44
26443;BME280;5563;52.296;6.806;2023-07-08T07:44:49;101595.91;;;22.30;56.30
26443;BME280;5563;52.296;6.806;2023-07-08T07:47:16;101593.81;;;22.40;54.70
26443;BME280;5563;52.296;6.806;2023-07-08T07:49:49;101591.00;;;22.48;54.66
26443;BME280;5563;52.296;6.806;2023-07-08T07:52:16;101599.41;;;22.61;55.25
26443;BME280;5563;52.296;6.806;2023-07-08T07:54:52;101608.63;;;22.75;54.28
26443;BME280;5563;52.296;6.806;2023-07-08T07:57:21;101601.56;;;22.88;54.39
26443;BME280;5563;52.296;6.806;2023-07-08T07:59:55;101599.28;;;23.06;54.04
26443;BME280;5563;52.296;6.806;2023-07-08T08:02:22;101595.72;;;23.20;51.24
26443;BME280;5563;52.296;6.806;2023-07-08T08:04:55;101604.31;;;23.32;52.10
26443;BME280;5563;52.296;6.806;2023-07-08T08:07:21;101595.50;;;23.44;53.27
26443;BME280;5563;52.296;6.806;2023-07-08T08:09:55;101602.13;;;23.57;51.72
26443;BME280;5563;52.296;6.806;2023-07-08T08:12:22;101599.41;;;23.71;51.82
26443;BME280;5563;52.296;6.806;2023-07-08T08:15:17;101596.81;;;23.84;50.49
26443;BME280;5563;52.296;6.806;2023-07-08T08:17:43;101603.00;;;23.93;48.36
26443;BME280;5563;52.296;6.806;2023-07-08T08:20:23;101601.03;;;24.01;50.04
26443;BME280;5563;52.296;6.806;2023-07-08T08:22:51;101603.88;;;24.14;48.99
26443;BME280;5563;52.296;6.806;2023-07-08T08:25:24;101606.56;;;24.29;49.54
26443;BME280;5563;52.296;6.806;2023-07-08T08:27:51;101600.66;;;24.46;50.45
26443;BME280;5563;52.296;6.806;2023-07-08T08:30:25;101603.09;;;24.63;49.02
26443;BME280;5563;52.296;6.806;2023-07-08T08:32:59;101611.47;;;24.82;48.38
26443;BME280;5563;52.296;6.806;2023-07-08T08:35:26;101576.91;;;24.89;48.32
26443;BME280;5563;52.296;6.806;2023-07-08T08:38:00;101602.59;;;25.35;46.96
26443;BME280;5563;52.296;6.806;2023-07-08T08:40:30;101607.41;;;25.68;49.20
26443;BME280;5563;52.296;6.806;2023-07-08T08:43:07;101609.00;;;25.90;45.96
26443;BME280;5563;52.296;6.806;2023-07-08T08:45:41;101615.59;;;26.08;45.74
26443;BME280;5563;52.296;6.806;2023-07-08T08:48:18;101594.56;;;26.15;47.30
26443;BME280;5563;52.296;6.806;2023-07-08T08:53:30;101606.00;;;26.51;45.76
26443;BME280;5563;52.296;6.806;2023-07-08T08:56:09;101605.97;;;26.64;46.67
26443;BME280;5563;52.296;6.806;2023-07-08T08:58:58;101606.66;;;26.86;47.33
26443;BME280;5563;52.296;6.806;2023-07-08T09:01:29;101590.03;;;26.94;44.73
26443;BME280;5563;52.296;6.806;2023-07-08T09:04:11;101596.94;;;26.97;44.43
26443;BME280;5563;52.296;6.806;2023-07-08T09:06:46;101595.50;;;26.94;44.21
26443;BME280;5563;52.296;6.806;2023-07-08T09:12:25;101592.31;;;27.10;42.68
26443;BME280;5563;52.296;6.806;2023-07-08T09:14:53;101590.81;;;27.14;43.06
26443;BME280;5563;52.296;6.806;2023-07-08T09:17:30;101592.69;;;27.27;44.41
26443;BME280;5563;52.296;6.806;2023-07-08T09:20:23;101591.59;;;27.41;42.53
26443;BME280;5563;52.296;6.806;2023-07-08T09:23:03;101580.88;;;27.46;42.17
26443;BME280;5563;52.296;6.806;2023-07-08T09:25:46;101570.50;;;27.54;42.82
26443;BME280;5563;52.296;6.806;2023-07-08T09:28:21;101595.63;;;27.89;42.11
26443;BME280;5563;52.296;6.806;2023-07-08T09:30:52;101596.84;;;28.06;42.38
26443;BME280;5563;52.296;6.806;2023-07-08T09:33:26;101596.50;;;28.27;40.48
26443;BME280;5563;52.296;6.806;2023-07-08T09:35:53;101600.84;;;28.41;39.46
26443;BME280;5563;52.296;6.806;2023-07-08T09:38:26;101590.91;;;28.40;40.97
26443;BME280;5563;52.296;6.806;2023-07-08T09:41:00;101611.63;;;28.67;40.79
26443;BME280;5563;52.296;6.806;2023-07-08T09:43:34;101608.56;;;28.82;40.73
26443;BME280;5563;52.296;6.806;2023-07-08T09:46:12;101604.16;;;28.99;39.36
26443;BME280;5563;52.296;6.806;2023-07-08T09:48:39;101590.34;;;29.12;39.37
26443;BME280;5563;52.296;6.806;2023-07-08T09:51:15;101595.50;;;29.20;39.94
26443;BME280;5563;52.296;6.806;2023-07-08T09:53:56;101596.44;;;29.32;39.80
26443;BME280;5563;52.296;6.806;2023-07-08T09:56:30;101597.38;;;29.44;39.49
26443;BME280;5563;52.296;6.806;2023-07-08T09:58:57;101598.19;;;29.63;39.66
26443;BME280;5563;52.296;6.806;2023-07-08T10:01:30;101598.75;;;29.71;37.74
26443;BME280;5563;52.296;6.806;2023-07-08T10:04:04;101593.53;;;29.63;37.62
26443;BME280;5563;52.296;6.806;2023-07-08T10:06:34;101599.28;;;29.62;37.88
26443;BME280;5563;52.296;6.806;2023-07-08T10:09:13;101592.88;;;29.50;38.36
26443;BME280;5563;52.296;6.806;2023-07-08T10:11:58;101599.03;;;29.45;38.95
26443;BME280;5563;52.296;6.806;2023-07-08T10:14:40;101596.38;;;29.57;38.56
26443;BME280;5563;52.296;6.806;2023-07-08T10:17:17;101595.38;;;29.69;38.35
26443;BME280;5563;52.296;6.806;2023-07-08T10:19:45;101600.59;;;29.78;35.72
26443;BME280;5563;52.296;6.806;2023-07-08T10:25:40;101571.94;;;29.67;37.00
26443;BME280;5563;52.296;6.806;2023-07-08T10:31:25;101590.44;;;30.08;35.15
26443;BME280;5563;52.296;6.806;2023-07-08T10:34:02;101593.81;;;30.21;32.94
26443;BME280;5563;52.296;6.806;2023-07-08T10:36:51;101583.50;;;30.35;34.21
26443;BME280;5563;52.296;6.806;2023-07-08T10:45:11;101590.78;;;30.82;34.07
26443;BME280;5563;52.296;6.806;2023-07-08T10:56:20;101574.00;;;30.84;32.73
26443;BME280;5563;52.296;6.806;2023-07-08T11:07:36;101560.81;;;31.09;32.22
26443;BME280;5563;52.296;6.806;2023-07-08T11:10:22;101571.84;;;31.20;31.54
26443;BME280;5563;52.296;6.806;2023-07-08T11:13:09;101572.19;;;31.12;30.94
26443;BME280;5563;52.296;6.806;2023-07-08T11:16:02;101564.50;;;31.26;31.46
26443;BME280;5563;52.296;6.806;2023-07-08T11:18:54;101561.63;;;31.55;30.97
26443;BME280;5563;52.296;6.806;2023-07-08T11:21:32;101551.81;;;31.76;29.60
26443;BME280;5563;52.296;6.806;2023-07-08T11:24:16;101561.47;;;32.02;29.93
26443;BME280;5563;52.296;6.806;2023-07-08T11:26:58;101561.88;;;32.10;32.13
26443;BME280;5563;52.296;6.806;2023-07-08T11:29:36;101563.59;;;32.28;29.73
26443;BME280;5563;52.296;6.806;2023-07-08T11:32:14;101557.09;;;32.34;28.56
26443;BME280;5563;52.296;6.806;2023-07-08T11:34:45;101550.19;;;32.36;28.54
26443;BME280;5563;52.296;6.806;2023-07-08T11:37:20;101558.81;;;32.40;27.85
26443;BME280;5563;52.296;6.806;2023-07-08T11:40:22;101556.50;;;32.48;29.41
26443;BME280;5563;52.296;6.806;2023-07-08T11:43:03;101551.56;;;32.50;29.70
26443;BME280;5563;52.296;6.806;2023-07-08T11:45:37;101547.31;;;32.59;28.54
26443;BME280;5563;52.296;6.806;2023-07-08T11:48:27;101549.66;;;32.67;30.29
26443;BME280;5563;52.296;6.806;2023-07-08T11:51:09;101551.31;;;32.85;26.31
26443;BME280;5563;52.296;6.806;2023-07-08T11:59:24;101536.41;;;33.03;26.23
26443;BME280;5563;52.296;6.806;2023-07-08T12:02:18;101530.75;;;33.14;28.52
26443;BME280;5563;52.296;6.806;2023-07-08T12:05:01;101518.22;;;33.28;26.24
26443;BME280;5563;52.296;6.806;2023-07-08T12:07:45;101530.72;;;33.31;26.48
26443;BME280;5563;52.296;6.806;2023-07-08T12:10:32;101518.59;;;33.37;27.34
26443;BME280;5563;52.296;6.806;2023-07-08T12:13:15;101520.22;;;33.33;26.98
26443;BME280;5563;52.296;6.806;2023-07-08T12:15:42;101532.75;;;33.40;26.56
26443;BME280;5563;52.296;6.806;2023-07-08T12:20:56;101522.03;;;33.65;26.02
26443;BME280;5563;52.296;6.806;2023-07-08T12:23:30;101522.97;;;33.76;24.51
26443;BME280;5563;52.296;6.806;2023-07-08T12:25:57;101518.03;;;33.56;25.98
26443;BME280;5563;52.296;6.806;2023-07-08T12:28:31;101520.69;;;33.68;24.92
26443;BME280;5563;52.296;6.806;2023-07-08T12:30:58;101513.59;;;33.77;25.94
26443;BME280;5563;52.296;6.806;2023-07-08T12:33:34;101508.91;;;33.77;25.64
26443;BME280;5563;52.296;6.806;2023-07-08T12:36:18;101518.31;;;33.81;25.46
26443;BME280;5563;52.296;6.806;2023-07-08T12:38:57;101517.25;;;33.83;26.47
26443;BME280;5563;52.296;6.806;2023-07-08T12:41:33;101509.56;;;33.90;25.64
26443;BME280;5563;52.296;6.806;2023-07-08T12:44:13;101520.84;;;34.10;25.08
26443;BME280;5563;52.296;6.806;2023-07-08T12:46:48;101519.78;;;34.11;24.87
26443;BME280;5563;52.296;6.806;2023-07-08T12:49:16;101508.91;;;34.04;24.86
26443;BME280;5563;52.296;6.806;2023-07-08T12:51:58;101518.50;;;34.23;24.66
26443;BME280;5563;52.296;6.806;2023-07-08T12:54:27;101515.28;;;34.36;23.07
26443;BME280;5563;52.296;6.806;2023-07-08T12:57:01;101511.78;;;34.46;24.45
26443;BME280;5563;52.296;6.806;2023-07-08T12:59:29;101510.19;;;34.55;24.57
26443;BME280;5563;52.296;6.806;2023-07-08T13:02:02;101516.38;;;34.67;24.87
26443;BME280;5563;52.296;6.806;2023-07-08T13:04:29;101511.13;;;34.70;24.66
26443;BME280;5563;52.296;6.806;2023-07-08T13:07:02;101511.69;;;34.72;23.12
26443;BME280;5563;52.296;6.806;2023-07-08T13:09:39;101514.47;;;34.72;23.38
26443;BME280;5563;52.296;6.806;2023-07-08T13:12:18;101512.91;;;34.92;23.21
26443;BME280;5563;52.296;6.806;2023-07-08T13:14:58;101506.41;;;35.13;24.22
26443;BME280;5563;52.296;6.806;2023-07-08T13:17:26;101508.09;;;35.14;22.71
26443;BME280;5563;52.296;6.806;2023-07-08T13:19:59;101503.72;;;34.81;24.51
26443;BME280;5563;52.296;6.806;2023-07-08T13:22:33;101510.25;;;34.65;22.41
26443;BME280;5563;52.296;6.806;2023-07-08T13:25:13;101503.06;;;34.64;23.42
26443;BME280;5563;52.296;6.806;2023-07-08T13:27:41;101505.69;;;34.86;23.55
26443;BME280;5563;52.296;6.806;2023-07-08T13:30:18;101497.47;;;34.96;23.37
26443;BME280;5563;52.296;6.806;2023-07-08T13:32:51;101501.66;;;35.03;24.00
26443;BME280;5563;52.296;6.806;2023-07-08T13:35:35;101483.44;;;35.17;22.93
26443;BME280;5563;52.296;6.806;2023-07-08T13:38:03;101506.63;;;35.53;22.49
26443;BME280;5563;52.296;6.806;2023-07-08T13:40:36;101506.09;;;35.66;21.96
26443;BME280;5563;52.296;6.806;2023-07-08T13:43:08;101506.91;;;35.61;21.96
26443;BME280;5563;52.296;6.806;2023-07-08T13:45:45;101503.88;;;35.63;23.42
26443;BME280;5563;52.296;6.806;2023-07-08T13:48:27;101502.22;;;35.72;22.75
26443;BME280;5563;52.296;6.806;2023-07-08T13:53:45;101492.84;;;35.93;22.25
26443;BME280;5563;52.296;6.806;2023-07-08T13:56:32;101502.88;;;35.99;20.87
26443;BME280;5563;52.296;6.806;2023-07-08T13:59:04;101507.59;;;35.99;21.15
26443;BME280;5563;52.296;6.806;2023-07-08T14:01:40;101500.66;;;36.01;21.11
26443;BME280;5563;52.296;6.806;2023-07-08T14:04:10;101496.75;;;36.12;22.04
26443;BME280;5563;52.296;6.806;2023-07-08T14:06:45;101495.66;;;36.23;21.02
26443;BME280;5563;52.296;6.806;2023-07-08T14:09:15;101497.31;;;36.14;21.34
26443;BME280;5563;52.296;6.806;2023-07-08T14:11:50;101503.41;;;36.21;21.15
26443;BME280;5563;52.296;6.806;2023-07-08T14:14:24;101506.19;;;36.21;20.35
26443;BME280;5563;52.296;6.806;2023-07-08T14:16:53;101496.75;;;36.12;20.12
26443;BME280;5563;52.296;6.806;2023-07-08T14:19:30;101503.69;;;35.90;19.94
26443;BME280;5563;52.296;6.806;2023-07-08T14:24:47;101504.53;;;35.90;20.07
26443;BME280;5563;52.296;6.806;2023-07-08T14:27:14;101505.38;;;35.96;21.12